Jepson Prairie Reserve, California Weather observations

Data are for 10 minute period ending at time listed.
 Day   Time   Solar   Ave.   Ave.  Ave.  Vector  Max.   Baro.   Total    
  of    of     Rad.   Air    Rel.  Wind   Wind   Wind  Press.  Precip.   
Year   Day            Temp.  Hum.  Speed  Dir.   Gust                    
2017   (PST)  Kw/m2    F      %     mph   deg.    mph    mb.     in.     
-------------------------------------------------------------------------
  84   13:10   0.84   62.5    63    7.8   226    15.4   1019.0    0.00 
  84   13:20   0.77   62.2    61    6.8   217    10.7   1018.6    0.00 
  84   13:30   0.77   62.3    61    8.0   230    13.0   1018.6    0.00 
  84   13:40   0.76   62.9    60    8.2   199    12.2   1018.6    0.00 
  84   13:50   0.68   62.8    58    6.9   218    11.7   1018.6    0.00 
  84   14:00   0.67   62.8    59    7.1   200    11.7   1018.3    0.00 
  84   14:10   0.61   63.3    58    7.5   206    12.3   1018.3    0.00 
  84   14:20   0.48   63.1    59    7.3   178    15.8   1018.3    0.00 
  84   14:30   0.41   62.5    60    7.2   197    15.6   1018.3    0.00 
  84   14:40   0.75   63.9    56    7.4   201    13.7   1018.0    0.00 
  84   14:50   0.80   65.0    55    7.4   184    13.1   1018.0    0.00 
  84   15:00   0.56   64.6    55    7.0   191    11.5   1018.0    0.00 
  84   15:10   0.35   63.7    56    8.4   205    12.0   1018.0    0.00 
  84   15:20   0.37   63.2    56    7.7   198    11.9   1018.0    0.00 
  84   15:30   0.27   63.2    56    7.2   196    12.3   1017.6    0.00 
  84   15:40   0.33   63.6    56    7.5   188    11.4   1017.6    0.00 
  84   15:50   0.50   63.6    57    7.7   193    10.7   1017.6    0.00 
  84   16:00   0.57   64.9    54    7.8   212    11.2   1017.6    0.00 
  84   16:10   0.43   64.8    54    8.0   201    11.0   1017.6    0.00 
  84   16:20   0.19   63.3    57    8.9   203    11.8   1017.6    0.00 
  84   16:30   0.30   63.2    57    9.3   217    13.4   1017.6    0.00 
  84   16:40   0.12   62.3    59    9.2   211    11.8   1017.6    0.00 
  84   16:50   0.14   62.0    58   10.0   218    13.8   1017.3    0.00 
  84   17:00   0.19   62.3    60   11.3   222    15.0   1017.3    0.00 
  84   17:10   0.15   62.1    63   11.3   223    15.3   1017.3    0.00 
  84   17:20   0.06   60.3    66   11.9   226    16.6   1017.3    0.00 
  84   17:30   0.07   59.2    70   10.6   225    13.4   1016.9    0.00 
  84   17:40   0.07   58.9    71   11.3   227    15.2   1016.9    0.00 
  84   17:50   0.06   58.6    71   11.2   225    14.0   1016.6    0.00 
  84   18:00   0.03   57.8    71   11.8   225    14.9   1016.6    0.00 
  84   18:10   0.02   57.2    72   11.4   226    14.6   1016.6    0.00 
  84   18:20   0.01   56.5    73   12.0   225    14.4   1016.6    0.00 
  84   18:30   0.00   55.6    74   11.8   222    14.8   1016.6    0.00 
  84   18:40   0.00   54.7    78   11.1   218    13.1   1016.6    0.00 
  84   18:50   0.00   54.1    79   12.1   220    15.5   1016.6    0.00 
  84   19:00   0.00   54.2    78   12.3   222    15.3   1016.6    0.00 
  84   19:10   0.00   53.6    81   11.1   219    13.6   1016.6    0.00 
  84   19:20   0.00   53.1    83   10.3   207    12.8   1016.6    0.00 
  84   19:30   0.00   52.3    85   10.7   199    13.6   1016.6    0.00 
  84   19:40   0.00   52.2    85   11.7   210    14.8   1016.6    0.00 
  84   19:50   0.00   52.3    84   12.7   210    15.6   1016.6    0.00 
  84   20:00   0.00   52.1    84   11.9   208    15.1   1016.9    0.00 
  84   20:10   0.00   51.7    85   11.9   204    13.9   1016.9    0.00 
  84   20:20   0.00   51.5    85   12.4   208    14.8   1016.9    0.00 
  84   20:30   0.00   51.5    85   12.8   209    15.4   1016.6    0.00 
  84   20:40   0.00   51.3    86   12.3   209    15.5   1016.9    0.00 
  84   20:50   0.00   51.1    86   13.3   208    16.9   1016.9    0.00 
  84   21:00   0.00   50.6    87   11.7   200    15.6   1016.9    0.00 
  84   21:10   0.00   50.1    88   11.4   200    14.8   1016.9    0.00 
  84   21:20   0.00   50.1    88   12.1   204    14.5   1016.6    0.00 
  84   21:30   0.00   50.3    88   13.3   204    16.6   1016.3    0.00 
  84   21:40   0.00   50.3    89   13.0   204    15.8   1016.3    0.00 
  84   21:50   0.00   50.4    90   13.7   204    17.9   1016.3    0.00 
  84   22:00   0.00   50.5    90   14.1   209    17.8   1016.3    0.00 
  84   22:10   0.00   50.4    91   14.4   211    18.0   1016.3    0.00 
  84   22:20   0.00   50.2    91   13.9   210    17.7   1016.3    0.00 
  84   22:30   0.00   50.2    91   14.4   209    17.4   1016.3    0.00 
  84   22:40   0.00   50.3    91   14.5   212    18.0   1016.3    0.00 
  84   22:50   0.00   50.4    91   13.6   211    17.6   1016.3    0.00 
  84   23:00   0.00   50.4    91   13.7   211    18.0   1016.3    0.00 
  84   23:10   0.00   50.4    91   13.3   211    17.7   1016.3    0.00 
  84   23:20   0.00   50.4    91   15.1   213    18.9   1016.3    0.00 
  84   23:30   0.00   50.5    90   16.5   213    23.2   1016.3    0.00 
  84   23:40   0.00   50.5    90   15.7   212    19.5   1016.3    0.00 
  84   23:50   0.00   50.4    90   15.0   211    18.6   1016.3    0.00 
  85    0:00   0.00   50.4    90   16.1   209    20.2   1016.3    0.00 
  85    0:10   0.00   50.3    89   15.3   211    19.1   1016.3    0.00 
  85    0:20   0.00   50.2    89   14.3   210    18.2   1016.3    0.00 
  85    0:30   0.00   50.1    89   14.3   207    17.2   1016.3    0.00 
  85    0:40   0.00   49.9    89   12.9   205    16.8   1015.9    0.00 
  85    0:50   0.00   49.9    89   13.3   205    16.6   1015.9    0.00 
  85    1:00   0.00   49.7    89   13.5   206    17.8   1016.3    0.00 
  85    1:10   0.00   49.8    90   14.7   207    17.9   1015.9    0.00 
  85    1:20   0.00   49.7    90   15.9   207    19.9   1015.9    0.00 
  85    1:30   0.00   49.6    90   15.6   207    19.0   1015.9    0.00 
  85    1:40   0.00   49.7    91   16.5   211    22.2   1015.9    0.00 
  85    1:50   0.00   49.8    89   15.3   212    18.7   1015.9    0.00 
  85    2:00   0.00   49.7    90   15.2   210    18.6   1015.9    0.00 
  85    2:10   0.00   49.7    91   15.5   209    19.4   1015.9    0.00 
  85    2:20   0.00   49.8    90   14.9   213    19.2   1015.6    0.00 
  85    2:30   0.00   49.6    90   14.1   205    16.3   1015.6    0.00 
  85    2:40   0.00   49.4    91   14.1   203    16.3   1015.6    0.00 
  85    2:50   0.00   49.4    91   11.6   204    14.0   1015.6    0.00 
  85    3:00   0.00   49.5    91   10.2   206    12.8   1015.6    0.00 
  85    3:10   0.00   49.4    92   10.2   199    12.9   1015.6    0.00 
  85    3:20   0.00   49.3    91    9.0   194    12.2   1015.2    0.00 
  85    3:30   0.00   49.2    91   10.4   193    13.3   1015.2    0.00 
  85    3:40   0.00   48.9    92   11.0   190    13.3   1015.2    0.00 
  85    3:50   0.00   49.1    92   10.9   194    14.6   1015.2    0.00 
  85    4:00   0.00   49.6    90   11.3   199    14.4   1015.2    0.00 
  85    4:10   0.00   49.5    90    8.2   184    11.5   1015.2    0.00 
  85    4:20   0.00   49.6    91    8.6   188    13.2   1015.2    0.00 
  85    4:30   0.00   50.1    90   11.9   202    15.4   1015.2    0.00 
  85    4:40   0.00   50.1    89   12.6   203    15.6   1015.2    0.00 
  85    4:50   0.00   50.2    89   11.6   200    14.2   1015.6    0.00 
  85    5:00   0.00   50.1    90    9.8   196    12.1   1015.6    0.00 
  85    5:10   0.00   50.0    90   10.0   196    12.9   1015.9    0.00 
  85    5:20   0.00   50.1    89    9.3   186    12.9   1015.9    0.00 
  85    5:30   0.00   50.1    89    8.1   176    10.1   1015.9    0.00 
  85    5:40   0.00   50.2    90    7.7   170     9.4   1015.9    0.00 
  85    5:50   0.00   50.3    90    8.5   180    11.1   1015.9    0.00 
  85    6:00   0.00   50.4    90    8.8   204    13.5   1016.3    0.00 
  85    6:10   0.00   50.6    89   11.1   215    13.9   1016.3    0.00 
  85    6:20   0.01   50.6    88    7.8   215    11.3   1016.3    0.00 
  85    6:30   0.01   50.5    88    7.0   212     8.9   1016.6    0.00 
  85    6:40   0.02   50.6    88    6.6   198     8.4   1016.6    0.00 
  85    6:50   0.03   50.6    88    6.9   171     8.4   1016.3    0.00 
  85    7:00   0.04   50.9    87    7.3   176     9.6   1016.3    0.00 
  85    7:10   0.03   51.1    88    6.5   197     9.1   1016.3    0.00 
  85    7:20   0.05   51.3    89   10.2   216    12.1   1016.3    0.00 
  85    7:30   0.06   51.5    89   10.4   222    13.1   1016.6    0.00 
  85    7:40   0.08   51.9    88   11.1   222    13.4   1016.6    0.00 
  85    7:50   0.11   52.2    87   11.2   217    13.4   1016.9    0.00 
  85    8:00   0.16   52.6    87   10.5   216    13.0   1016.9    0.00 
  85    8:10   0.14   52.8    86   10.0   212    13.0   1017.3    0.00 
  85    8:20   0.10   52.7    86   10.5   215    13.3   1017.3    0.00 
  85    8:30   0.12   52.6    86   11.4   215    14.2   1017.3    0.00 
  85    8:40   0.18   53.1    85   11.7   214    14.8   1017.3    0.00 
  85    8:50   0.16   53.2    84   11.0   213    13.5   1017.3    0.00 
  85    9:00   0.18   53.6    83    9.9   216    12.9   1017.3    0.00 
  85    9:10   0.20   53.7    81   11.1   221    13.5   1017.3    0.00 
  85    9:20   0.23   54.0    81   10.8   222    13.5   1017.6    0.00 
  85    9:30   0.25   54.3    78    9.8   224    12.6   1017.6    0.00 
  85    9:40   0.29   54.5    78    9.5   230    13.1   1018.0    0.00 
  85    9:50   0.28   54.8    78    8.6   228    11.4   1018.0    0.00 
  85   10:00   0.28   55.0    77    8.2   214    10.9   1018.0    0.00 
  85   10:10   0.37   55.3    75    7.7   214    10.3   1018.0    0.00 
  85   10:20   0.41   56.2    73    7.6   193    10.5   1018.0    0.00 
  85   10:30   0.43   56.7    72    7.8   198    10.2   1017.6    0.00 
  85   10:40   0.43   57.1    71    6.6   189    10.0   1017.6    0.00 
  85   10:50   0.43   57.5    71    4.7   190     8.1   1017.6    0.00 
  85   11:00   0.62   58.0    69    5.7   193     8.4   1017.6    0.00 
  85   11:10   0.81   58.9    67    5.4   175     8.5   1017.6    0.00 
  85   11:20   0.73   59.7    67    6.3   184    12.3   1017.3    0.00 
  85   11:30   0.66   59.9    66    8.1   185    13.5   1017.6    0.00 
  85   11:40   0.72   59.9    66    7.3   203    11.0   1017.6    0.00 
  85   11:50   0.57   60.0    65    7.7   192    11.2   1017.6    0.00 
  85   12:00   0.49   59.8    66    7.5   189    11.0   1017.6    0.00 
  85   12:10   0.60   60.5    65    7.5   194    10.7   1017.6    0.00 
  85   12:20   0.48   60.4    63    7.1   180     9.9   1017.6    0.00 
  85   12:30   0.53   60.7    61    7.5   177    10.3   1017.6    0.00 
  85   12:40   0.43   60.5    61    7.4   186    10.4   1017.6    0.00 
  85   12:50   0.45   60.6    60    5.9   159     8.5   1017.6    0.00 
  85   13:00   0.46   60.9    60    6.2   165     8.8   1017.3    0.00 

Return to Jepson Prairie Reserve graphs page.


Western Regional Climate Center,wrcc@dri.edu